logo tempoitalia

Diretta Meteo Chambery-Aix-Les-Bains, Francialunedì 31 agosto ore 07:00

Mappa
Sereno 20 °C Coperto 24 Ore: T.min 14 T.max 30
Ponente Nord Km/h 0 Punto di rugiada: 19 °C Umidità: 93% Visibilità: 10 Km
Il sole sorge alle: 06:56 Il sole tramonta alle: 20:17
31 Agosto 2026 07:00 tempo osservato: Coperto Coperto 20 93 1019 vento: Nord N 0
31 Agosto 2026 06:30 tempo osservato: Coperto Coperto 20 93 1019 vento: Nord N 5.5
31 Agosto 2026 06:00 tempo osservato: Molto Nuvoloso Molto Nuvoloso 20 93 1019 vento: Nord N 3.7
31 Agosto 2026 05:30 tempo osservato: Coperto Coperto 20 88 1019 vento: Nord N/NO 7.4
31 Agosto 2026 05:00 tempo osservato: Molto Nuvoloso Molto Nuvoloso 20 88 1019 vento: Nord N/NE 7.4
31 Agosto 2026 04:30 tempo osservato: Pioggia Pioggia 21 77 1019 vento: Nord E/NE 11.1
31 Agosto 2026 04:00 tempo osservato: Coperto Coperto 23 68 1018 vento: Nord NE 16.7
31 Agosto 2026 03:30 tempo osservato: Coperto Coperto 23 68 1018 vento: Nord N/NE 20.3
31 Agosto 2026 03:00 tempo osservato: Molto Nuvoloso Molto Nuvoloso 23 64 1018 vento: Nord E/NE 16.7
31 Agosto 2026 02:30 tempo osservato: Coperto Coperto 24 64 1018 vento: Nord E 11.1
31 Agosto 2026 02:00 tempo osservato: Coperto Coperto 24 57 1018 vento: Nord S 14.8
31 Agosto 2026 01:30 tempo osservato: Sereno Sereno 25 53 1017 vento: Nord S/SE 14.8
31 Agosto 2026 01:00 tempo osservato: Sereno Sereno 26 50 1017 vento: Nord N 7.4
31 Agosto 2026 00:30 tempo osservato: Sereno Sereno 24 57 1016 vento: Nord SO 7.4
31 Agosto 2026 00:00 tempo osservato: Sereno Sereno 24 60 1016 vento: Nord S/SO 14.8
30 Agosto 2026 23:30 tempo osservato: Sereno Sereno 24 57 1016 vento: Nord S/SO 13
30 Agosto 2026 23:00 tempo osservato: Sereno Sereno 19 82 1015 vento: Nord S/SO 9.3
30 Agosto 2026 22:30 tempo osservato: Sereno Sereno 21 77 1015 vento: Nord N 1.8
30 Agosto 2026 22:00 tempo osservato: Sereno Sereno 21 77 1015 vento: Nord N 1.8
30 Agosto 2026 21:30 tempo osservato: Sereno Sereno 21 73 1015 vento: Nord N 5.5
30 Agosto 2026 21:00 tempo osservato: Sereno Sereno 22 68 1015 vento: Nord N 3.7
30 Agosto 2026 20:30 tempo osservato: Sereno Sereno 22 73 1014 vento: Nord N 0
30 Agosto 2026 20:00 tempo osservato: Sereno Sereno 24 64 1014 vento: Nord N 1.8
30 Agosto 2026 19:30 tempo osservato: Sereno Sereno 25 61 1014 vento: Nord N 0
30 Agosto 2026 19:00 tempo osservato: Sereno Sereno 27 47 1014 vento: Nord O/NO 7.4
30 Agosto 2026 18:30 tempo osservato: Sereno Sereno 29 42 1014 vento: Nord O/NO 9.3
30 Agosto 2026 18:00 tempo osservato: Sereno Sereno 30 42 1014 vento: Nord N 7.4
30 Agosto 2026 17:30 tempo osservato: Sereno Sereno 30 42 1014 vento: Nord N 9.3
30 Agosto 2026 17:00 tempo osservato: Sereno Sereno 30 42 1014 vento: Nord N/NE 9.3
30 Agosto 2026 16:30 tempo osservato: Sereno Sereno 30 42 1015 vento: Nord N 7.4
30 Agosto 2026 16:00 tempo osservato: Sereno Sereno 29 45 1015 vento: Nord N 5.5
30 Agosto 2026 15:30 tempo osservato: Sereno Sereno 29 48 1015 vento: Nord N 9.3
30 Agosto 2026 15:00 tempo osservato: Sereno Sereno 28 45 1016 vento: Nord N 9.3
30 Agosto 2026 14:30 tempo osservato: Sereno Sereno 28 45 1016 vento: Nord N 9.3
30 Agosto 2026 14:00 tempo osservato: Sereno Sereno 28 48 1016 vento: Nord N/NE 7.4
30 Agosto 2026 13:30 tempo osservato: Sereno Sereno 27 44 1016 vento: Nord N 5.5
30 Agosto 2026 13:00 tempo osservato: Sereno Sereno 26 47 1017 vento: Nord N 5.5
30 Agosto 2026 12:30 tempo osservato: Sereno Sereno 25 50 1017 vento: Nord N 5.5
30 Agosto 2026 12:00 tempo osservato: Sereno Sereno 25 57 1017 vento: Nord N 5.5
30 Agosto 2026 11:30 tempo osservato: Sereno Sereno 24 53 1018 vento: Nord N 5.5
30 Agosto 2026 11:00 tempo osservato: Sereno Sereno 23 60 1018 vento: Nord N 5.5
30 Agosto 2026 10:30 tempo osservato: Sereno Sereno 22 60 1018 vento: Nord N 5.5
30 Agosto 2026 10:00 tempo osservato: Sereno Sereno 21 68 1018 vento: Nord N 5.5
30 Agosto 2026 09:30 tempo osservato: Sereno Sereno 20 68 1018 vento: Nord S/SE 7.4
30 Agosto 2026 09:00 tempo osservato: Sereno Sereno 18 77 1018 vento: Nord N 3.7
30 Agosto 2026 08:30 tempo osservato: Sereno Sereno 16 87 1018 vento: Nord N 3.7
30 Agosto 2026 08:00 tempo osservato: Sereno Sereno 14 93 1018 vento: Nord N 5.5